createdAt,value
2023-04-25T00:00:02.331Z,0.00
2023-04-25T00:01:02.335Z,0.00
2023-04-25T00:02:02.357Z,0.00
2023-04-25T00:03:02.423Z,0.00
2023-04-25T00:04:02.612Z,0.00
2023-04-25T00:05:02.644Z,0.00
2023-04-25T00:06:02.428Z,0.00
2023-04-25T00:07:02.446Z,0.00
2023-04-25T00:08:02.456Z,0.00
2023-04-25T00:09:02.476Z,0.00
2023-04-25T00:10:02.504Z,0.00
2023-04-25T00:11:02.526Z,0.00
2023-04-25T00:12:02.608Z,0.00
2023-04-25T00:13:02.562Z,0.00
2023-04-25T00:14:02.583Z,0.00
2023-04-25T00:15:02.614Z,0.00
2023-04-25T00:16:02.692Z,0.00
2023-04-25T00:17:02.645Z,0.00
2023-04-25T00:18:02.692Z,0.00
2023-04-25T00:19:02.684Z,0.00
2023-04-25T00:20:02.706Z,0.00
2023-04-25T00:21:02.729Z,0.00
2023-04-25T00:22:02.761Z,0.00
2023-04-25T00:23:02.773Z,0.00
2023-04-25T00:24:02.808Z,0.00
2023-04-25T00:25:02.819Z,0.00
2023-04-25T00:26:02.831Z,0.00
2023-04-25T00:27:02.850Z,0.00
2023-04-25T00:28:02.874Z,0.00
2023-04-25T00:29:02.898Z,0.00
2023-04-25T00:30:02.913Z,0.00
2023-04-25T00:31:03.062Z,0.00
2023-04-25T00:32:03.089Z,0.00
2023-04-25T00:33:03.024Z,0.00
2023-04-25T00:34:02.998Z,0.00
2023-04-25T00:35:03.042Z,0.00
2023-04-25T00:36:03.064Z,0.00
2023-04-25T00:37:03.080Z,0.00
2023-04-25T00:38:03.078Z,0.00
2023-04-25T00:39:03.097Z,0.00
2023-04-25T00:40:03.122Z,0.00
2023-04-25T00:41:03.170Z,0.00
2023-04-25T00:42:03.165Z,0.00
2023-04-25T00:43:03.187Z,0.00
2023-04-25T00:44:03.216Z,0.00
2023-04-25T00:45:03.224Z,0.00
2023-04-25T00:46:03.254Z,0.00
2023-04-25T00:47:03.388Z,0.00
2023-04-25T00:48:03.346Z,0.00
2023-04-25T00:49:03.348Z,0.00
2023-04-25T00:50:03.336Z,0.00
2023-04-25T00:51:03.364Z,0.00
2023-04-25T00:52:03.374Z,0.00
2023-04-25T00:53:03.399Z,0.00
2023-04-25T00:54:03.429Z,0.00
2023-04-25T00:55:03.437Z,0.00
2023-04-25T00:56:03.453Z,0.00
2023-04-25T00:57:03.476Z,0.00
2023-04-25T00:58:03.492Z,0.00
2023-04-25T00:59:03.514Z,0.00
2023-04-25T01:00:03.535Z,0.00
2023-04-25T01:01:03.639Z,0.00
2023-04-25T01:02:03.597Z,0.00
2023-04-25T01:03:03.773Z,0.00
2023-04-25T01:04:03.747Z,0.00
2023-04-25T01:05:03.652Z,0.00
2023-04-25T01:06:03.662Z,0.00
2023-04-25T01:07:03.725Z,0.00
2023-04-25T01:08:03.706Z,0.00
2023-04-25T01:09:03.725Z,0.00
2023-04-25T01:10:03.743Z,0.00
2023-04-25T01:11:03.771Z,0.00
2023-04-25T01:12:03.791Z,0.00
2023-04-25T01:13:03.812Z,0.00
2023-04-25T01:14:03.834Z,0.00
2023-04-25T01:15:03.851Z,0.00
2023-04-25T01:16:03.948Z,0.00
2023-04-25T01:17:03.926Z,0.00
2023-04-25T01:18:03.943Z,0.00
2023-04-25T01:19:03.935Z,0.00
2023-04-25T01:20:03.961Z,0.00
2023-04-25T01:21:03.972Z,0.00
2023-04-25T01:22:03.987Z,0.00
2023-04-25T01:23:04.140Z,0.00
2023-04-25T01:24:04.036Z,0.00
2023-04-25T01:25:04.062Z,0.00
2023-04-25T01:26:04.082Z,0.00
2023-04-25T01:27:04.100Z,0.00
2023-04-25T01:28:04.118Z,0.00
2023-04-25T01:29:04.139Z,0.00
2023-04-25T01:30:04.158Z,0.00
2023-04-25T01:31:04.180Z,0.00
2023-04-25T01:32:04.245Z,0.00
2023-04-25T01:33:04.252Z,0.00
2023-04-25T01:34:04.245Z,0.00
2023-04-25T01:35:04.263Z,0.00
2023-04-25T01:36:04.283Z,0.00
2023-04-25T01:37:04.303Z,0.00
2023-04-25T01:38:04.330Z,0.00
2023-04-25T01:39:04.346Z,0.00
2023-04-25T01:40:04.367Z,0.00
2023-04-25T01:41:04.394Z,0.00
2023-04-25T01:42:04.436Z,0.00
2023-04-25T01:43:04.442Z,0.00
2023-04-25T01:44:04.529Z,0.00
2023-04-25T01:45:04.511Z,0.00
2023-04-25T01:46:04.549Z,0.00
2023-04-25T01:47:04.568Z,0.00
2023-04-25T01:48:04.574Z,0.00
2023-04-25T01:49:04.549Z,0.00
2023-04-25T01:50:04.572Z,0.00
2023-04-25T01:51:04.597Z,0.00
2023-04-25T01:52:04.624Z,0.00
2023-04-25T01:53:04.640Z,0.00
2023-04-25T01:54:04.653Z,0.00
2023-04-25T01:55:04.677Z,0.00
2023-04-25T01:56:04.700Z,0.00
2023-04-25T01:57:04.749Z,0.00
2023-04-25T01:58:04.749Z,0.00
2023-04-25T01:59:04.762Z,0.00
2023-04-25T02:00:04.793Z,0.00
2023-04-25T02:01:04.820Z,0.00
2023-04-25T02:02:04.821Z,0.00
2023-04-25T02:03:04.928Z,0.00
2023-04-25T02:04:05.087Z,0.00
2023-04-25T02:05:04.884Z,0.00
2023-04-25T02:06:04.904Z,0.00
2023-04-25T02:07:04.953Z,0.00
2023-04-25T02:08:04.944Z,0.00
2023-04-25T02:09:04.971Z,0.00
2023-04-25T02:10:04.987Z,0.00
2023-04-25T02:11:05.008Z,0.00
2023-04-25T02:12:05.029Z,0.00
2023-04-25T02:13:05.069Z,0.00
2023-04-25T02:14:05.069Z,0.00
2023-04-25T02:15:05.096Z,0.00
2023-04-25T02:16:05.218Z,0.00
2023-04-25T02:17:05.230Z,0.00
2023-04-25T02:18:05.165Z,0.00
2023-04-25T02:19:05.174Z,0.00
2023-04-25T02:20:05.194Z,0.00
2023-04-25T02:21:05.217Z,0.00
2023-04-25T02:22:05.257Z,0.00
2023-04-25T02:23:05.260Z,0.00
2023-04-25T02:24:05.283Z,0.00
2023-04-25T02:25:05.299Z,0.00
2023-04-25T02:26:05.319Z,0.00
2023-04-25T02:27:05.343Z,0.00
2023-04-25T02:28:05.412Z,0.00
2023-04-25T02:29:05.390Z,0.00
2023-04-25T02:30:05.399Z,0.00
2023-04-25T02:31:05.440Z,0.00
2023-04-25T02:32:05.444Z,0.00
2023-04-25T02:33:05.573Z,0.00
2023-04-25T02:34:05.482Z,0.00
2023-04-25T02:35:05.520Z,0.00
2023-04-25T02:36:05.527Z,0.00
2023-04-25T02:37:05.559Z,0.00
2023-04-25T02:38:05.581Z,0.00
2023-04-25T02:39:05.591Z,0.00
2023-04-25T02:40:05.609Z,0.00
2023-04-25T02:41:05.633Z,0.00
2023-04-25T02:42:05.651Z,0.00
2023-04-25T02:43:05.680Z,0.00
2023-04-25T02:44:05.689Z,0.00
2023-04-25T02:45:05.712Z,0.00
2023-04-25T02:46:05.781Z,0.00
2023-04-25T02:47:05.789Z,0.00
2023-04-25T02:48:05.802Z,0.00
2023-04-25T02:49:05.792Z,0.00
2023-04-25T02:50:05.814Z,0.00
2023-04-25T02:51:05.857Z,0.00
2023-04-25T02:52:05.857Z,0.00
2023-04-25T02:53:05.879Z,0.00
2023-04-25T02:54:05.893Z,0.00
2023-04-25T02:55:05.925Z,0.00
2023-04-25T02:56:05.934Z,0.00
2023-04-25T02:57:05.959Z,0.00
2023-04-25T02:58:05.987Z,0.00
2023-04-25T02:59:05.993Z,0.00
2023-04-25T03:00:06.042Z,0.00
2023-04-25T03:01:06.075Z,0.00
2023-04-25T03:02:06.053Z,0.00
2023-04-25T03:03:06.169Z,0.00
2023-04-25T03:04:06.127Z,0.00
2023-04-25T03:05:06.122Z,0.00
2023-04-25T03:06:06.136Z,0.00
2023-04-25T03:07:06.162Z,0.00
2023-04-25T03:08:06.180Z,0.00
2023-04-25T03:09:06.219Z,0.00
2023-04-25T03:10:06.216Z,0.00
2023-04-25T03:11:06.239Z,0.00
2023-04-25T03:12:06.301Z,0.00
2023-04-25T03:13:06.278Z,0.00
2023-04-25T03:14:06.297Z,0.00
2023-04-25T03:15:06.318Z,0.00
2023-04-25T03:16:06.409Z,0.00
2023-04-25T03:17:06.399Z,0.00
2023-04-25T03:18:06.439Z,0.00
2023-04-25T03:19:06.406Z,0.00
2023-04-25T03:20:06.464Z,0.00
2023-04-25T03:21:06.443Z,0.00
2023-04-25T03:22:06.476Z,0.00
2023-04-25T03:23:06.499Z,0.00
2023-04-25T03:24:06.535Z,0.00
2023-04-25T03:25:06.556Z,0.00
2023-04-25T03:26:06.554Z,0.00
2023-04-25T03:27:06.577Z,0.00
2023-04-25T03:28:06.600Z,0.00
2023-04-25T03:29:06.621Z,0.00
2023-04-25T03:30:06.630Z,0.00
2023-04-25T03:31:06.646Z,0.00
2023-04-25T03:32:06.694Z,0.00
2023-04-25T03:33:06.736Z,0.00
2023-04-25T03:34:06.708Z,0.00
2023-04-25T03:35:06.761Z,0.00
2023-04-25T03:36:06.750Z,0.00
2023-04-25T03:37:06.770Z,0.00
2023-04-25T03:38:06.783Z,0.00
2023-04-25T03:39:06.807Z,0.00
2023-04-25T03:40:06.845Z,0.00
2023-04-25T03:41:06.856Z,0.00
2023-04-25T03:42:06.877Z,0.00
2023-04-25T03:43:06.887Z,4.00
2023-04-25T03:44:06.913Z,4.00
2023-04-25T03:45:06.932Z,4.00
2023-04-25T03:46:06.985Z,4.00
2023-04-25T03:47:06.972Z,4.00
2023-04-25T03:48:07.035Z,4.00
2023-04-25T03:49:07.027Z,8.00
2023-04-25T03:50:07.066Z,4.00
2023-04-25T03:51:07.048Z,4.00
2023-04-25T03:52:07.076Z,8.00
2023-04-25T03:53:07.085Z,8.00
2023-04-25T03:54:07.111Z,16.00
2023-04-25T03:55:07.131Z,20.00
2023-04-25T03:56:07.150Z,20.00
2023-04-25T03:57:07.191Z,28.00
2023-04-25T03:58:07.188Z,32.00
2023-04-25T03:59:07.211Z,36.00
2023-04-25T04:00:07.233Z,40.00
2023-04-25T04:01:07.254Z,48.00
2023-04-25T04:02:07.309Z,52.00
2023-04-25T04:03:07.398Z,60.00
2023-04-25T04:04:07.595Z,64.00
2023-04-25T04:05:07.560Z,68.00
2023-04-25T04:06:07.351Z,76.00
2023-04-25T04:07:07.370Z,76.00
2023-04-25T04:08:07.402Z,88.00
2023-04-25T04:09:07.417Z,88.00
2023-04-25T04:10:07.435Z,92.00
2023-04-25T04:11:07.454Z,96.00
2023-04-25T04:12:07.472Z,96.00
2023-04-25T04:13:07.495Z,100.00
2023-04-25T04:14:07.521Z,100.00
2023-04-25T04:15:07.539Z,100.00
2023-04-25T04:16:07.701Z,104.00
2023-04-25T04:17:07.573Z,112.00
2023-04-25T04:18:07.636Z,112.00
2023-04-25T04:19:07.620Z,124.00
2023-04-25T04:20:07.634Z,140.00
2023-04-25T04:21:07.654Z,156.00
2023-04-25T04:22:07.681Z,168.00
2023-04-25T04:23:07.708Z,216.00
2023-04-25T04:24:07.717Z,236.00
2023-04-25T04:25:07.734Z,244.00
2023-04-25T04:26:07.751Z,236.00
2023-04-25T04:27:07.785Z,236.00
2023-04-25T04:28:07.794Z,220.00
2023-04-25T04:29:07.845Z,236.00
2023-04-25T04:30:07.840Z,292.00
2023-04-25T04:31:07.956Z,340.00
2023-04-25T04:32:07.873Z,372.00
2023-04-25T04:33:07.948Z,396.00
2023-04-25T04:34:07.922Z,412.00
2023-04-25T04:35:07.948Z,424.00
2023-04-25T04:36:07.959Z,452.00
2023-04-25T04:37:07.986Z,476.00
2023-04-25T04:38:07.996Z,500.00
2023-04-25T04:39:08.023Z,524.00
2023-04-25T04:40:08.037Z,536.00
2023-04-25T04:41:08.060Z,540.00
2023-04-25T04:42:08.077Z,536.00
2023-04-25T04:43:08.094Z,540.00
2023-04-25T04:44:08.866Z,584.00
2023-04-25T04:45:08.130Z,628.00
2023-04-25T04:46:08.185Z,672.00
2023-04-25T04:47:08.178Z,704.00
2023-04-25T04:48:08.265Z,708.00
2023-04-25T04:49:08.220Z,708.00
2023-04-25T04:50:08.235Z,856.00
2023-04-25T04:51:08.264Z,900.00
2023-04-25T04:52:08.277Z,952.00
2023-04-25T04:53:08.295Z,992.00
2023-04-25T04:54:08.324Z,1004.00
2023-04-25T04:55:08.344Z,996.00
2023-04-25T04:56:08.374Z,1068.00
2023-04-25T04:57:08.377Z,1152.00
2023-04-25T04:58:08.413Z,1240.00
2023-04-25T04:59:08.438Z,1292.00
2023-04-25T05:00:08.436Z,1324.00
2023-04-25T05:01:08.539Z,1372.00
2023-04-25T05:02:08.479Z,1380.00
2023-04-25T05:03:08.578Z,1484.00
2023-04-25T05:04:08.857Z,1648.00
2023-04-25T05:05:08.543Z,1812.00
2023-04-25T05:06:08.561Z,2000.00
2023-04-25T05:07:08.593Z,2112.00
2023-04-25T05:08:08.605Z,2176.00
2023-04-25T05:09:08.623Z,2212.00
2023-04-25T05:10:08.654Z,2280.00
2023-04-25T05:11:08.660Z,2376.00
2023-04-25T05:12:08.707Z,2420.00
2023-04-25T05:13:08.708Z,2420.00
2023-04-25T05:14:08.724Z,2512.00
2023-04-25T05:15:08.751Z,2592.00
2023-04-25T05:16:08.788Z,2640.00
2023-04-25T05:17:08.783Z,2636.00
2023-04-25T05:18:08.856Z,2720.00
2023-04-25T05:19:08.826Z,2872.00
2023-04-25T05:20:08.854Z,3068.00
2023-04-25T05:21:08.869Z,3252.00
2023-04-25T05:22:08.890Z,3408.00
2023-04-25T05:23:08.910Z,3568.00
2023-04-25T05:24:08.939Z,3696.00
2023-04-25T05:25:08.968Z,3780.00
2023-04-25T05:26:08.969Z,3844.00
2023-04-25T05:27:08.991Z,3936.00
2023-04-25T05:28:09.016Z,4020.00
2023-04-25T05:29:09.037Z,4140.00
2023-04-25T05:30:09.079Z,4168.00
2023-04-25T05:31:09.073Z,4148.00
2023-04-25T05:32:09.105Z,4212.00
2023-04-25T05:33:09.151Z,4328.00
2023-04-25T05:34:09.134Z,4484.00
2023-04-25T05:35:09.208Z,4632.00
2023-04-25T05:36:09.186Z,4744.00
2023-04-25T05:37:09.195Z,4876.00
2023-04-25T05:38:09.228Z,5032.00
2023-04-25T05:39:09.230Z,5184.00
2023-04-25T05:40:09.256Z,5268.00
2023-04-25T05:41:09.278Z,5336.00
2023-04-25T05:42:09.294Z,5260.00
2023-04-25T05:43:09.320Z,5128.00
2023-04-25T05:44:09.338Z,5020.00
2023-04-25T05:45:09.368Z,4912.00
2023-04-25T05:46:09.452Z,4836.00
2023-04-25T05:47:09.414Z,4684.00
2023-04-25T05:48:09.474Z,4460.00
2023-04-25T05:49:09.445Z,4332.00
2023-04-25T05:50:09.462Z,4328.00
2023-04-25T05:51:09.482Z,4416.00
2023-04-25T05:52:09.526Z,4516.00
2023-04-25T05:53:09.525Z,4608.00
2023-04-25T05:54:09.547Z,4716.00
2023-04-25T05:55:09.565Z,4864.00
2023-04-25T05:56:09.591Z,4976.00
2023-04-25T05:57:09.604Z,4972.00
2023-04-25T05:58:09.631Z,4936.00
2023-04-25T05:59:09.642Z,4900.00
2023-04-25T06:00:09.670Z,4800.00
2023-04-25T06:01:09.689Z,4716.00
2023-04-25T06:02:09.737Z,4688.00
2023-04-25T06:03:09.900Z,4664.00
2023-04-25T06:04:10.039Z,4660.00
2023-04-25T06:05:09.919Z,4708.00
2023-04-25T06:06:09.791Z,4788.00
2023-04-25T06:07:09.812Z,4816.00
2023-04-25T06:08:09.861Z,4752.00
2023-04-25T06:09:09.876Z,4644.00
2023-04-25T06:10:09.885Z,4600.00
2023-04-25T06:11:09.914Z,4668.00
2023-04-25T06:12:09.923Z,4776.00
2023-04-25T06:13:09.939Z,4844.00
2023-04-25T06:14:09.962Z,4920.00
2023-04-25T06:15:19.967Z,5052.00
2023-04-25T06:16:10.043Z,5200.00
2023-04-25T06:17:10.026Z,5328.00
2023-04-25T06:18:10.144Z,5456.00
2023-04-25T06:19:10.064Z,5608.00
2023-04-25T06:20:10.092Z,5756.00
2023-04-25T06:21:10.125Z,6008.00
2023-04-25T06:22:10.132Z,6336.00
2023-04-25T06:23:10.148Z,6620.00
2023-04-25T06:24:10.186Z,6728.00
2023-04-25T06:25:10.189Z,6680.00
2023-04-25T06:26:10.228Z,6668.00
2023-04-25T06:27:10.285Z,6636.00
2023-04-25T06:28:10.258Z,6640.00
2023-04-25T06:29:10.277Z,6604.00
2023-04-25T06:30:10.311Z,6500.00
2023-04-25T06:31:10.365Z,6296.00
2023-04-25T06:32:10.342Z,6024.00
2023-04-25T06:33:10.397Z,5816.00
2023-04-25T06:34:10.377Z,5800.00
2023-04-25T06:35:10.394Z,5964.00
2023-04-25T06:36:10.434Z,6256.00
2023-04-25T06:37:10.492Z,6548.00
2023-04-25T06:38:10.470Z,6776.00
2023-04-25T06:39:10.557Z,6940.00
2023-04-25T06:40:10.544Z,7040.00
2023-04-25T06:41:10.530Z,7076.00
2023-04-25T06:42:10.561Z,7100.00
2023-04-25T06:43:10.589Z,7164.00
2023-04-25T06:44:10.591Z,7268.00
2023-04-25T06:45:10.616Z,7316.00
2023-04-25T06:46:10.632Z,7280.00
2023-04-25T06:47:10.672Z,7132.00
2023-04-25T06:48:10.758Z,6932.00
2023-04-25T06:49:10.707Z,6816.00
2023-04-25T06:50:10.716Z,6796.00
2023-04-25T06:51:10.744Z,6868.00
2023-04-25T06:52:10.759Z,7020.00
2023-04-25T06:53:10.782Z,7224.00
2023-04-25T06:54:10.824Z,7388.00
2023-04-25T06:55:10.827Z,7452.00
2023-04-25T06:56:10.878Z,7576.00
2023-04-25T06:57:10.893Z,7908.00
2023-04-25T06:58:10.882Z,8300.00
2023-04-25T06:59:11.124Z,8588.00
2023-04-25T07:00:10.962Z,8716.00
2023-04-25T07:01:10.988Z,8732.00
2023-04-25T07:02:11.051Z,8744.00
2023-04-25T07:03:11.194Z,8888.00
2023-04-25T07:04:11.157Z,9272.00
2023-04-25T07:05:11.044Z,9820.00
2023-04-25T07:06:11.086Z,10372.00
2023-04-25T07:07:11.088Z,10732.00
2023-04-25T07:08:11.121Z,11060.00
2023-04-25T07:09:11.136Z,11368.00
2023-04-25T07:10:11.175Z,11400.00
2023-04-25T07:11:11.172Z,11000.00
2023-04-25T07:12:11.205Z,10500.00
2023-04-25T07:13:11.230Z,10040.00
2023-04-25T07:14:11.244Z,9716.00
2023-04-25T07:15:11.256Z,9600.00
2023-04-25T07:16:11.328Z,9876.00
2023-04-25T07:17:11.306Z,10392.00
2023-04-25T07:18:11.382Z,10792.00
2023-04-25T07:19:11.358Z,10780.00
2023-04-25T07:20:11.375Z,10556.00
2023-04-25T07:21:11.395Z,10372.00
2023-04-25T07:22:11.416Z,10224.00
2023-04-25T07:23:11.442Z,10292.00
2023-04-25T07:24:11.472Z,10548.00
2023-04-25T07:25:11.478Z,10700.00
2023-04-25T07:26:11.508Z,10704.00
2023-04-25T07:27:11.528Z,10628.00
2023-04-25T07:28:11.565Z,10544.00
2023-04-25T07:29:11.570Z,10472.00
2023-04-25T07:30:11.601Z,10488.00
2023-04-25T07:31:11.614Z,10672.00
2023-04-25T07:32:11.667Z,10992.00
2023-04-25T07:33:11.695Z,11300.00
2023-04-25T07:34:11.681Z,11464.00
2023-04-25T07:35:11.699Z,11572.00
2023-04-25T07:36:11.736Z,11700.00
2023-04-25T07:37:11.770Z,11856.00
2023-04-25T07:38:11.779Z,11960.00
2023-04-25T07:39:11.806Z,12048.00
2023-04-25T07:40:11.820Z,12160.00
2023-04-25T07:41:11.840Z,12384.00
2023-04-25T07:42:11.862Z,12700.00
2023-04-25T07:43:11.884Z,12932.00
2023-04-25T07:44:11.908Z,12920.00
2023-04-25T07:45:11.960Z,13316.00
2023-04-25T07:46:11.981Z,13352.00
2023-04-25T07:47:12.003Z,13204.00
2023-04-25T07:48:12.001Z,13040.00
2023-04-25T07:49:12.017Z,12960.00
2023-04-25T07:50:12.040Z,12948.00
2023-04-25T07:51:12.067Z,12908.00
2023-04-25T07:52:12.088Z,12868.00
2023-04-25T07:53:12.105Z,12916.00
2023-04-25T07:54:12.130Z,13048.00
2023-04-25T07:55:12.153Z,13056.00
2023-04-25T07:56:12.174Z,13040.00
2023-04-25T07:57:12.200Z,12804.00
2023-04-25T07:58:12.223Z,12468.00
2023-04-25T07:59:12.252Z,12480.00
2023-04-25T08:00:12.280Z,12908.00
2023-04-25T08:01:12.298Z,13400.00
2023-04-25T08:02:12.340Z,13832.00
2023-04-25T08:03:12.461Z,14248.00
2023-04-25T08:04:12.466Z,14576.00
2023-04-25T08:05:12.545Z,14684.00
2023-04-25T08:06:12.653Z,14788.00
2023-04-25T08:07:12.430Z,14992.00
2023-04-25T08:08:12.453Z,15296.00
2023-04-25T08:09:12.475Z,15408.00
2023-04-25T08:10:12.505Z,15340.00
2023-04-25T08:11:12.520Z,15028.00
2023-04-25T08:12:12.550Z,14640.00
2023-04-25T08:13:12.571Z,14476.00
2023-04-25T08:14:12.598Z,14084.00
2023-04-25T08:15:12.620Z,13296.00
2023-04-25T08:16:12.671Z,12648.00
2023-04-25T08:17:12.665Z,12188.00
2023-04-25T08:18:12.925Z,11988.00
2023-04-25T08:19:12.715Z,11940.00
2023-04-25T08:20:12.752Z,11940.00
2023-04-25T08:21:12.859Z,12308.00
2023-04-25T08:22:12.778Z,12940.00
2023-04-25T08:23:12.805Z,13396.00
2023-04-25T08:24:12.825Z,13304.00
2023-04-25T08:25:12.852Z,13128.00
2023-04-25T08:26:12.906Z,13492.00
2023-04-25T08:27:12.908Z,13680.00
2023-04-25T08:28:12.936Z,13624.00
2023-04-25T08:29:12.963Z,13512.00
2023-04-25T08:30:12.982Z,13212.00
2023-04-25T08:31:13.040Z,12908.00
2023-04-25T08:32:13.058Z,13064.00
2023-04-25T08:33:13.068Z,12940.00
2023-04-25T08:34:13.057Z,13096.00
2023-04-25T08:35:13.080Z,13208.00
2023-04-25T08:36:13.201Z,13220.00
2023-04-25T08:37:13.130Z,13144.00
2023-04-25T08:38:13.155Z,13160.00
2023-04-25T08:39:13.177Z,13440.00
2023-04-25T08:40:13.202Z,13040.00
2023-04-25T08:41:13.225Z,11244.00
2023-04-25T08:42:13.249Z,9320.00
2023-04-25T08:43:13.272Z,8564.00
2023-04-25T08:44:13.296Z,9172.00
2023-04-25T08:45:13.347Z,9508.00
2023-04-25T08:46:13.361Z,8708.00
2023-04-25T08:47:13.450Z,7844.00
2023-04-25T08:48:13.454Z,7168.00
2023-04-25T08:49:13.411Z,6904.00
2023-04-25T08:50:13.424Z,7312.00
2023-04-25T08:51:13.755Z,7704.00
2023-04-25T08:52:13.469Z,7592.00
2023-04-25T08:53:13.505Z,7572.00
2023-04-25T08:54:28.026Z,7436.00
2023-04-25T08:55:13.555Z,7444.00
2023-04-25T08:56:13.564Z,7492.00
2023-04-25T08:57:13.586Z,7516.00
2023-04-25T08:58:13.608Z,7960.00
2023-04-25T08:59:13.630Z,8076.00
2023-04-25T09:00:13.659Z,8944.00
2023-04-25T09:01:13.688Z,9740.00
2023-04-25T09:02:13.798Z,9372.00
2023-04-25T09:03:13.998Z,8952.00
2023-04-25T09:04:13.869Z,8808.00
2023-04-25T09:05:13.778Z,9180.00
2023-04-25T09:06:13.788Z,9756.00
2023-04-25T09:07:13.812Z,10472.00
2023-04-25T09:08:13.836Z,11352.00
2023-04-25T09:09:13.863Z,12172.00
2023-04-25T09:10:13.892Z,12300.00
2023-04-25T09:11:13.898Z,11368.00
2023-04-25T09:12:13.935Z,9748.00
2023-04-25T09:13:13.966Z,8544.00
2023-04-25T09:14:13.967Z,8288.00
2023-04-25T09:16:14.083Z,8580.00
2023-04-25T09:17:14.058Z,8568.00
2023-04-25T09:18:14.089Z,8204.00
2023-04-25T09:19:14.102Z,8396.00
2023-04-25T09:20:14.112Z,9688.00
2023-04-25T09:21:14.888Z,11628.00
2023-04-25T09:22:14.150Z,13968.00
2023-04-25T09:23:14.182Z,15444.00
2023-04-25T09:24:14.194Z,15472.00
2023-04-25T09:25:14.221Z,14160.00
2023-04-25T09:26:14.242Z,12812.00
2023-04-25T09:27:14.266Z,12588.00
2023-04-25T09:28:14.297Z,12964.00
2023-04-25T09:29:14.317Z,12880.00
2023-04-25T09:30:14.343Z,11936.00
2023-04-25T09:31:14.360Z,10136.00
2023-04-25T09:32:14.421Z,8252.00
2023-04-25T09:33:14.429Z,7268.00
2023-04-25T09:34:14.436Z,6976.00
2023-04-25T09:35:14.454Z,7160.00
2023-04-25T09:36:14.513Z,8112.00
2023-04-25T09:37:14.542Z,9460.00
2023-04-25T09:38:14.537Z,10312.00
2023-04-25T09:39:14.548Z,10532.00
2023-04-25T09:40:14.571Z,10908.00
2023-04-25T09:41:14.595Z,10680.00
2023-04-25T09:42:14.620Z,9336.00
2023-04-25T09:43:14.640Z,8464.00
2023-04-25T09:44:14.661Z,8744.00
2023-04-25T09:45:14.682Z,9596.00
2023-04-25T09:46:14.743Z,10160.00
2023-04-25T09:47:14.754Z,10296.00
2023-04-25T09:48:14.768Z,10536.00
2023-04-25T09:49:14.779Z,10772.00
2023-04-25T09:50:14.804Z,11152.00
2023-04-25T09:51:14.862Z,11736.00
2023-04-25T09:52:14.977Z,12400.00
2023-04-25T09:53:14.872Z,13028.00
2023-04-25T09:54:14.913Z,13220.00
2023-04-25T09:55:14.919Z,13124.00
2023-04-25T09:56:14.940Z,12924.00
2023-04-25T09:57:14.994Z,12712.00
2023-04-25T09:58:14.993Z,12284.00
2023-04-25T09:59:15.013Z,12188.00
2023-04-25T10:00:15.040Z,12364.00
2023-04-25T10:01:15.112Z,12592.00
2023-04-25T10:02:15.187Z,13020.00
2023-04-25T10:03:15.162Z,13728.00
2023-04-25T10:04:15.227Z,13940.00
2023-04-25T10:05:15.265Z,13820.00
2023-04-25T10:06:15.173Z,13280.00
2023-04-25T10:07:15.197Z,12292.00
2023-04-25T10:08:15.262Z,11240.00
2023-04-25T10:09:15.243Z,10432.00
2023-04-25T10:10:15.320Z,9992.00
2023-04-25T10:11:15.299Z,9916.00
2023-04-25T10:12:15.322Z,10116.00
2023-04-25T10:13:15.358Z,10072.00
2023-04-25T10:14:15.418Z,9372.00
2023-04-25T10:15:15.388Z,8308.00
2023-04-25T10:16:15.457Z,7036.00
2023-04-25T10:17:15.428Z,6052.00
2023-04-25T10:18:15.498Z,5168.00
2023-04-25T10:19:15.485Z,4584.00
2023-04-25T10:20:15.574Z,4368.00
2023-04-25T10:21:15.526Z,4432.00
2023-04-25T10:22:15.546Z,4672.00
2023-04-25T10:23:15.571Z,5272.00
2023-04-25T10:24:15.689Z,5976.00
2023-04-25T10:25:15.628Z,6836.00
2023-04-25T10:26:15.633Z,7872.00
2023-04-25T10:27:15.663Z,9004.00
2023-04-25T10:28:15.686Z,9740.00
2023-04-25T10:29:15.701Z,9968.00
2023-04-25T10:30:15.801Z,10264.00
2023-04-25T10:31:15.801Z,10188.00
2023-04-25T10:32:15.970Z,9784.00
2023-04-25T10:33:15.805Z,8960.00
2023-04-25T10:34:15.818Z,8472.00
2023-04-25T10:35:15.852Z,8968.00
2023-04-25T10:36:15.866Z,9828.00
2023-04-25T10:37:15.886Z,10400.00
2023-04-25T10:38:15.932Z,10536.00
2023-04-25T10:39:15.934Z,11700.00
2023-04-25T10:40:15.960Z,12596.00
2023-04-25T10:41:15.979Z,13060.00
2023-04-25T10:42:16.005Z,14460.00
2023-04-25T10:43:16.027Z,15416.00
2023-04-25T10:44:16.048Z,15324.00
2023-04-25T10:45:16.076Z,14260.00
2023-04-25T10:46:16.123Z,12872.00
2023-04-25T10:47:16.122Z,11328.00
2023-04-25T10:48:16.146Z,10112.00
2023-04-25T10:49:16.284Z,9132.00
2023-04-25T10:50:16.191Z,8508.00
2023-04-25T10:51:16.214Z,8168.00
2023-04-25T10:52:16.244Z,7636.00
2023-04-25T10:53:16.263Z,7088.00
2023-04-25T10:54:16.285Z,6608.00
2023-04-25T10:55:16.313Z,6648.00
2023-04-25T10:56:16.435Z,7252.00
2023-04-25T10:57:16.366Z,8132.00
2023-04-25T10:58:16.385Z,9288.00
2023-04-25T10:59:16.408Z,10676.00
2023-04-25T11:00:16.537Z,12008.00
2023-04-25T11:01:16.475Z,13128.00
2023-04-25T11:02:16.555Z,13928.00
2023-04-25T11:03:16.684Z,13960.00
2023-04-25T11:04:16.731Z,13636.00
2023-04-25T11:05:16.548Z,13396.00
2023-04-25T11:06:16.567Z,13232.00
2023-04-25T11:07:16.589Z,13192.00
2023-04-25T11:08:16.618Z,13288.00
2023-04-25T11:09:16.642Z,13728.00
2023-04-25T11:10:16.686Z,14120.00
2023-04-25T11:11:16.682Z,14396.00
2023-04-25T11:12:16.763Z,14672.00
2023-04-25T11:13:16.739Z,15016.00
2023-04-25T11:14:16.773Z,15400.00
2023-04-25T11:15:16.781Z,15480.00
2023-04-25T11:16:23.742Z,15204.00
2023-04-25T11:17:16.929Z,14732.00
2023-04-25T11:18:16.931Z,14240.00
2023-04-25T11:19:16.878Z,13524.00
2023-04-25T11:20:16.905Z,12548.00
2023-04-25T11:21:16.928Z,11772.00
2023-04-25T11:22:16.953Z,11992.00
2023-04-25T11:23:16.973Z,12680.00
2023-04-25T11:24:16.996Z,13252.00
2023-04-25T11:25:17.021Z,13364.00
2023-04-25T11:26:17.049Z,13008.00
2023-04-25T11:27:17.068Z,12704.00
2023-04-25T11:28:17.092Z,12680.00
2023-04-25T11:29:17.111Z,12620.00
2023-04-25T11:30:17.137Z,12604.00
2023-04-25T11:31:17.174Z,12664.00
2023-04-25T11:32:17.730Z,12484.00
2023-04-25T11:33:17.260Z,11892.00
2023-04-25T11:34:17.230Z,11432.00
2023-04-25T11:35:17.268Z,11304.00
2023-04-25T11:36:17.276Z,11032.00
2023-04-25T11:37:17.317Z,10456.00
2023-04-25T11:38:17.329Z,9756.00
2023-04-25T11:39:17.354Z,8784.00
2023-04-25T11:40:17.382Z,7644.00
2023-04-25T11:41:17.394Z,6836.00
2023-04-25T11:42:17.417Z,6776.00
2023-04-25T11:43:18.894Z,7412.00
2023-04-25T11:44:17.470Z,8272.00
2023-04-25T11:45:17.514Z,9204.00
2023-04-25T11:46:17.538Z,9988.00
2023-04-25T11:47:17.590Z,10620.00
2023-04-25T11:48:17.787Z,11228.00
2023-04-25T11:49:17.581Z,11896.00
2023-04-25T11:50:17.642Z,12688.00
2023-04-25T11:51:17.630Z,13276.00
2023-04-25T11:52:17.655Z,13216.00
2023-04-25T11:53:17.685Z,12788.00
2023-04-25T11:54:17.703Z,12396.00
2023-04-25T11:55:17.730Z,12112.00
2023-04-25T11:56:17.748Z,12036.00
2023-04-25T11:57:17.770Z,12216.00
2023-04-25T11:58:17.792Z,12516.00
2023-04-25T11:59:17.837Z,12864.00
2023-04-25T12:00:18.981Z,13216.00
2023-04-25T12:01:17.868Z,13432.00
2023-04-25T12:02:17.970Z,13640.00
2023-04-25T12:03:18.069Z,13892.00
2023-04-25T12:04:18.189Z,14180.00
2023-04-25T12:06:18.117Z,14732.00
2023-04-25T12:07:18.007Z,14800.00
2023-04-25T12:08:18.034Z,14600.00
2023-04-25T12:09:18.051Z,14180.00
2023-04-25T12:10:18.089Z,13628.00
2023-04-25T12:11:18.101Z,12928.00
2023-04-25T12:12:18.129Z,12136.00
2023-04-25T12:13:18.152Z,11444.00
2023-04-25T12:14:18.180Z,10760.00
2023-04-25T12:15:18.226Z,10032.00
2023-04-25T12:16:18.281Z,9252.00
2023-04-25T12:17:18.246Z,8308.00
2023-04-25T12:18:18.327Z,7436.00
2023-04-25T12:19:18.295Z,6536.00
2023-04-25T12:20:18.318Z,5792.00
2023-04-25T12:21:18.339Z,5236.00
2023-04-25T12:22:18.362Z,4820.00
2023-04-25T12:23:18.392Z,4340.00
2023-04-25T12:24:18.411Z,3896.00